RYR363C LEMI-EGHH
Flight info
| Callsign | RYR363C |
|---|---|
| Flight time | N/A |
| Altitude | 36000 |
| Route | ALT N851 MITOS N608 COMPI Y90 USKAR DCT MOPAS DCT GIROM DCT AGN DCT SECHE DCT UVELI DCT CNA DCT MANAK UY110 ORIST Y110 THRED |
| Aircraft | B738/M-SDE2E3FGHIRWXY/LB1 |
Departure
| Time | 2026-05-06 13:47 |
|---|---|
| Airport | Region of Murcia International Airport (LEMI) |
Arrival
| Time | N/A |
|---|---|
| Airport | Bournemouth Airport (EGHH) |
| Time | Latitude | Longitude | Altitude | Speed | Heading |
|---|---|---|---|---|---|
| 2026-05-06 13:23 | 37.80323 | -1.13155 | 646 ft | 0 kts | 315° |
| 2026-05-06 13:28 | 37.80323 | -1.13154 | 646 ft | 0 kts | 315° |
| 2026-05-06 13:39 | 37.80313 | -1.13142 | 646 ft | 4 kts | 311° |
| 2026-05-06 13:39 | 37.80297 | -1.13115 | 650 ft | 4 kts | 297° |
| 2026-05-06 13:40 | 37.80288 | -1.13084 | 647 ft | 4 kts | 268° |
| 2026-05-06 13:40 | 37.80294 | -1.13059 | 647 ft | 1 kts | 225° |
| 2026-05-06 13:43 | 37.80294 | -1.13060 | 647 ft | 1 kts | 225° |
| 2026-05-06 13:43 | 37.80289 | -1.13066 | 646 ft | 3 kts | 225° |
| 2026-05-06 13:43 | 37.80245 | -1.13123 | 646 ft | 11 kts | 225° |
| 2026-05-06 13:43 | 37.80198 | -1.13160 | 646 ft | 14 kts | 184° |
| 2026-05-06 13:44 | 37.80124 | -1.13091 | 646 ft | 12 kts | 142° |
| 2026-05-06 13:44 | 37.80048 | -1.13125 | 647 ft | 15 kts | 226° |
| 2026-05-06 13:44 | 37.79933 | -1.13271 | 650 ft | 19 kts | 226° |
| 2026-05-06 13:44 | 37.79831 | -1.13402 | 650 ft | 23 kts | 225° |
| 2026-05-06 13:45 | 37.79708 | -1.13561 | 649 ft | 28 kts | 225° |
| 2026-05-06 13:45 | 37.79504 | -1.13783 | 647 ft | 15 kts | 167° |
| 2026-05-06 13:45 | 37.79426 | -1.13699 | 645 ft | 13 kts | 136° |
| 2026-05-06 13:46 | 37.79397 | -1.13663 | 644 ft | 1 kts | 121° |
| 2026-05-06 13:46 | 37.79401 | -1.13649 | 644 ft | 3 kts | 61° |
| 2026-05-06 13:46 | 37.79419 | -1.13623 | 643 ft | 0 kts | 46° |
| 2026-05-06 13:46 | 37.79456 | -1.13575 | 643 ft | 29 kts | 46° |
| 2026-05-06 13:47 | 37.79772 | -1.13167 | 648 ft | 99 kts | 45° |
| 2026-05-06 13:47 | 37.80406 | -1.12355 | 649 ft | 158 kts | 44° |
| 2026-05-06 13:47 | 37.81239 | -1.11299 | 1151 ft | 170 kts | 50° |
| 2026-05-06 13:47 | 37.82040 | -1.10330 | 2349 ft | 156 kts | 45° |
| 2026-05-06 13:48 | 37.82884 | -1.09324 | 2907 ft | 182 kts | 46° |
| 2026-05-06 13:48 | 37.83878 | -1.08139 | 3300 ft | 207 kts | 44° |
| 2026-05-06 13:48 | 37.84983 | -1.06828 | 3698 ft | 225 kts | 44° |
| 2026-05-06 13:48 | 37.86185 | -1.05403 | 4047 ft | 250 kts | 44° |
| 2026-05-06 13:49 | 37.87476 | -1.03870 | 4741 ft | 261 kts | 44° |
| 2026-05-06 13:49 | 37.88826 | -1.02268 | 5610 ft | 263 kts | 43° |
| 2026-05-06 13:49 | 37.90185 | -1.00655 | 6376 ft | 272 kts | 43° |
| 2026-05-06 13:49 | 37.91582 | -0.98997 | 7096 ft | 279 kts | 43° |
| 2026-05-06 13:50 | 37.92988 | -0.97325 | 7882 ft | 283 kts | 42° |
| 2026-05-06 13:50 | 37.94441 | -0.95598 | 8659 ft | 289 kts | 42° |
| 2026-05-06 13:50 | 37.95919 | -0.93840 | 9460 ft | 294 kts | 41° |
| 2026-05-06 13:50 | 37.97424 | -0.92048 | 10212 ft | 299 kts | 41° |
| 2026-05-06 13:51 | 37.98977 | -0.90199 | 10699 ft | 314 kts | 41° |
| 2026-05-06 13:51 | 38.00602 | -0.88262 | 11208 ft | 327 kts | 41° |
| 2026-05-06 13:51 | 38.02277 | -0.86263 | 11880 ft | 333 kts | 41° |
| 2026-05-06 13:51 | 38.03977 | -0.84231 | 12569 ft | 339 kts | 41° |
| 2026-05-06 13:52 | 38.05698 | -0.82173 | 13341 ft | 344 kts | 41° |
| 2026-05-06 13:52 | 38.07467 | -0.80059 | 13884 ft | 354 kts | 41° |
| 2026-05-06 13:52 | 38.09279 | -0.77891 | 14439 ft | 362 kts | 41° |
| 2026-05-06 13:52 | 38.11130 | -0.75675 | 14998 ft | 370 kts | 41° |
| 2026-05-06 13:53 | 38.13015 | -0.73424 | 15637 ft | 374 kts | 41° |
| 2026-05-06 13:53 | 38.14924 | -0.71159 | 16328 ft | 377 kts | 41° |
| 2026-05-06 13:53 | 38.16854 | -0.68874 | 16953 ft | 382 kts | 41° |
| 2026-05-06 13:53 | 38.18813 | -0.66551 | 17563 ft | 388 kts | 41° |
| 2026-05-06 13:54 | 38.20795 | -0.64197 | 18181 ft | 393 kts | 41° |
| 2026-05-06 13:54 | 38.22803 | -0.61809 | 18719 ft | 398 kts | 41° |
| 2026-05-06 13:54 | 38.24834 | -0.59391 | 19259 ft | 402 kts | 41° |
| 2026-05-06 13:54 | 38.26773 | -0.56799 | 19766 ft | 409 kts | 54° |
| 2026-05-06 13:55 | 38.28072 | -0.53565 | 20304 ft | 413 kts | 68° |
| 2026-05-06 13:55 | 38.29143 | -0.50159 | 20836 ft | 417 kts | 69° |
| 2026-05-06 13:55 | 38.30201 | -0.46691 | 21322 ft | 422 kts | 69° |
| 2026-05-06 13:55 | 38.31276 | -0.43195 | 21824 ft | 427 kts | 69° |
| 2026-05-06 13:56 | 38.32379 | -0.39668 | 22332 ft | 431 kts | 69° |
| 2026-05-06 13:56 | 38.33504 | -0.36117 | 22833 ft | 435 kts | 68° |
| 2026-05-06 13:56 | 38.34647 | -0.32530 | 23317 ft | 439 kts | 68° |
| 2026-05-06 13:56 | 38.35798 | -0.28917 | 23755 ft | 443 kts | 68° |
| 2026-05-06 13:57 | 38.36978 | -0.25275 | 24172 ft | 446 kts | 68° |
| 2026-05-06 13:57 | 38.38195 | -0.21629 | 24595 ft | 449 kts | 67° |
| 2026-05-06 13:57 | 38.39430 | -0.17965 | 25009 ft | 451 kts | 67° |
| 2026-05-06 13:57 | 38.40669 | -0.14268 | 25399 ft | 455 kts | 67° |
| 2026-05-06 13:58 | 38.41909 | -0.10544 | 25790 ft | 458 kts | 67° |
| 2026-05-06 13:58 | 38.43390 | -0.06949 | 26131 ft | 461 kts | 52° |
| 2026-05-06 13:58 | 38.45643 | -0.04069 | 26504 ft | 458 kts | 32° |
| 2026-05-06 13:58 | 38.48418 | -0.02145 | 26938 ft | 452 kts | 16° |
| 2026-05-06 13:59 | 38.51443 | -0.01200 | 27297 ft | 444 kts | 359° |
| 2026-05-06 13:59 | 38.54519 | -0.01076 | 27666 ft | 443 kts | 354° |
| 2026-05-06 13:59 | 38.57606 | -0.01090 | 28026 ft | 445 kts | 353° |
| 2026-05-06 13:59 | 38.60668 | -0.01135 | 28384 ft | 447 kts | 353° |
| 2026-05-06 14:00 | 38.63789 | -0.01175 | 28739 ft | 450 kts | 353° |
| 2026-05-06 14:00 | 38.66926 | -0.01196 | 29091 ft | 451 kts | 354° |
| 2026-05-06 14:00 | 38.70078 | -0.01198 | 29420 ft | 455 kts | 354° |
| 2026-05-06 14:00 | 38.73249 | -0.01189 | 29658 ft | 458 kts | 354° |
| 2026-05-06 14:01 | 38.76443 | -0.01171 | 29995 ft | 460 kts | 354° |
| 2026-05-06 14:01 | 38.79654 | -0.01148 | 30272 ft | 462 kts | 354° |
| 2026-05-06 14:01 | 38.82877 | -0.01125 | 30532 ft | 464 kts | 354° |
| 2026-05-06 14:01 | 38.86113 | -0.01099 | 30803 ft | 466 kts | 354° |
| 2026-05-06 14:02 | 38.89360 | -0.01075 | 31081 ft | 467 kts | 353° |
| 2026-05-06 14:02 | 38.92613 | -0.01053 | 31433 ft | 467 kts | 353° |
| 2026-05-06 14:02 | 38.95855 | -0.01032 | 31829 ft | 465 kts | 353° |
| 2026-05-06 14:02 | 38.99085 | -0.01010 | 32209 ft | 464 kts | 353° |
| 2026-05-06 14:03 | 39.02313 | -0.00989 | 32537 ft | 464 kts | 353° |
| 2026-05-06 14:03 | 39.05544 | -0.00969 | 32861 ft | 464 kts | 353° |
| 2026-05-06 14:03 | 39.08766 | -0.00949 | 33191 ft | 463 kts | 353° |
| 2026-05-06 14:03 | 39.11983 | -0.00928 | 33542 ft | 462 kts | 353° |
| 2026-05-06 14:04 | 39.15200 | -0.00907 | 33870 ft | 462 kts | 353° |
| 2026-05-06 14:04 | 39.18412 | -0.00886 | 34142 ft | 462 kts | 352° |
| 2026-05-06 14:04 | 39.21624 | -0.00865 | 34391 ft | 462 kts | 352° |
| 2026-05-06 14:04 | 39.24831 | -0.00845 | 34651 ft | 461 kts | 353° |
| 2026-05-06 14:05 | 39.28042 | -0.00824 | 34888 ft | 461 kts | 353° |
| 2026-05-06 14:05 | 39.31251 | -0.00803 | 35127 ft | 461 kts | 353° |
| 2026-05-06 14:05 | 39.34468 | -0.00685 | 35368 ft | 466 kts | 358° |
| 2026-05-06 14:05 | 39.37689 | -0.00001 | 35594 ft | 475 kts | 8° |
| 2026-05-06 14:06 | 39.40875 | 0.01134 | 35853 ft | 476 kts | 10° |
| 2026-05-06 14:06 | 39.44014 | 0.02340 | 35957 ft | 479 kts | 11° |
| 2026-05-06 14:06 | 39.50419 | 0.04829 | 35963 ft | 481 kts | 10° |
| 2026-05-06 14:07 | 39.56799 | 0.07246 | 35950 ft | 474 kts | 9° |
| 2026-05-06 14:07 | 39.63120 | 0.09595 | 35969 ft | 471 kts | 9° |
| 2026-05-06 14:08 | 39.69420 | 0.11928 | 35964 ft | 471 kts | 9° |
| 2026-05-06 14:08 | 39.75718 | 0.14268 | 35969 ft | 471 kts | 9° |
| 2026-05-06 14:09 | 39.82012 | 0.16615 | 35967 ft | 471 kts | 9° |
| 2026-05-06 14:09 | 39.88314 | 0.18970 | 35969 ft | 471 kts | 9° |
| 2026-05-06 14:10 | 39.94619 | 0.21331 | 35977 ft | 472 kts | 9° |
| 2026-05-06 14:10 | 40.00933 | 0.23699 | 35982 ft | 473 kts | 9° |
| 2026-05-06 14:11 | 40.07261 | 0.26073 | 35984 ft | 473 kts | 9° |
| 2026-05-06 14:11 | 40.13592 | 0.28452 | 35987 ft | 474 kts | 9° |
| 2026-05-06 14:12 | 40.19932 | 0.30841 | 35986 ft | 474 kts | 10° |
| 2026-05-06 14:12 | 40.26276 | 0.33235 | 35981 ft | 475 kts | 10° |
| 2026-05-06 14:13 | 40.32620 | 0.35634 | 35981 ft | 475 kts | 10° |
| 2026-05-06 14:13 | 40.38962 | 0.38042 | 35969 ft | 474 kts | 10° |
| 2026-05-06 14:14 | 40.45250 | 0.40434 | 35956 ft | 474 kts | 10° |
| 2026-05-06 14:14 | 40.51618 | 0.42862 | 35954 ft | 473 kts | 10° |
| 2026-05-06 14:15 | 40.57893 | 0.45259 | 35947 ft | 473 kts | 10° |
| 2026-05-06 14:15 | 40.64207 | 0.47676 | 35940 ft | 472 kts | 10° |
| 2026-05-06 14:16 | 40.70517 | 0.50096 | 35941 ft | 472 kts | 10° |
| 2026-05-06 14:16 | 40.76820 | 0.52518 | 35937 ft | 471 kts | 10° |
| 2026-05-06 14:17 | 40.89713 | 0.57486 | 35932 ft | 472 kts | 11° |
| 2026-05-06 14:18 | 40.96018 | 0.59924 | 35925 ft | 471 kts | 11° |
| 2026-05-06 14:18 | 41.02304 | 0.62360 | 35935 ft | 470 kts | 11° |
| 2026-05-06 14:19 | 41.08584 | 0.64797 | 35929 ft | 470 kts | 11° |
| 2026-05-06 14:19 | 41.13801 | 0.66825 | 35927 ft | 470 kts | 11° |
| 2026-05-06 14:20 | 41.20074 | 0.69268 | 35920 ft | 470 kts | 11° |
| 2026-05-06 14:20 | 41.26348 | 0.71714 | 35929 ft | 470 kts | 11° |
| 2026-05-06 14:21 | 41.32628 | 0.74168 | 35927 ft | 471 kts | 11° |
| 2026-05-06 14:21 | 41.38915 | 0.76631 | 35922 ft | 471 kts | 11° |
| 2026-05-06 14:22 | 41.45199 | 0.79098 | 35920 ft | 471 kts | 11° |
| 2026-05-06 14:22 | 41.51483 | 0.81570 | 35923 ft | 471 kts | 11° |
| 2026-05-06 14:23 | 41.57729 | 0.84032 | 35925 ft | 471 kts | 11° |
| 2026-05-06 14:23 | 41.64006 | 0.86511 | 35924 ft | 470 kts | 11° |
| 2026-05-06 14:24 | 41.70282 | 0.88994 | 35918 ft | 470 kts | 11° |
| 2026-05-06 14:24 | 41.76560 | 0.91483 | 35916 ft | 470 kts | 11° |
| 2026-05-06 14:25 | 41.82831 | 0.93975 | 35933 ft | 470 kts | 11° |
| 2026-05-06 14:25 | 41.89102 | 0.96472 | 35957 ft | 470 kts | 12° |
| 2026-05-06 14:26 | 41.95378 | 0.98976 | 35946 ft | 470 kts | 11° |
| 2026-05-06 14:26 | 42.01647 | 1.01483 | 35955 ft | 470 kts | 12° |
| 2026-05-06 14:27 | 42.07919 | 1.03995 | 35975 ft | 471 kts | 12° |
| 2026-05-06 14:27 | 42.14241 | 1.06138 | 35946 ft | 464 kts | 1° |
| 2026-05-06 14:28 | 42.20585 | 1.06082 | 35934 ft | 453 kts | 349° |
| 2026-05-06 14:28 | 42.26845 | 1.05291 | 35905 ft | 453 kts | 349° |
| 2026-05-06 14:29 | 42.33134 | 1.04559 | 35905 ft | 453 kts | 349° |
| 2026-05-06 14:29 | 42.39418 | 1.03880 | 35916 ft | 454 kts | 350° |
| 2026-05-06 14:30 | 42.45716 | 1.03200 | 35902 ft | 453 kts | 350° |
| 2026-05-06 14:30 | 42.51996 | 1.02518 | 35926 ft | 452 kts | 350° |
| 2026-05-06 14:31 | 42.58261 | 1.01832 | 35913 ft | 451 kts | 350° |
| 2026-05-06 14:31 | 42.64510 | 1.01148 | 35949 ft | 451 kts | 349° |
| 2026-05-06 14:32 | 42.70731 | 1.00466 | 35956 ft | 451 kts | 350° |
| 2026-05-06 14:32 | 42.76999 | 0.99779 | 35955 ft | 452 kts | 350° |
| 2026-05-06 14:33 | 42.83275 | 0.99088 | 35969 ft | 453 kts | 350° |
| 2026-05-06 14:33 | 42.89570 | 0.98394 | 35972 ft | 454 kts | 350° |
| 2026-05-06 14:34 | 42.95866 | 0.97702 | 35977 ft | 454 kts | 350° |
| 2026-05-06 14:34 | 43.02166 | 0.97007 | 35969 ft | 454 kts | 350° |
| 2026-05-06 14:35 | 43.08458 | 0.96311 | 35973 ft | 453 kts | 350° |
| 2026-05-06 14:35 | 43.14740 | 0.95614 | 35971 ft | 452 kts | 350° |
| 2026-05-06 14:36 | 43.21007 | 0.94917 | 35968 ft | 452 kts | 350° |
| 2026-05-06 14:36 | 43.27268 | 0.94220 | 35966 ft | 451 kts | 350° |
| 2026-05-06 14:37 | 43.33525 | 0.93521 | 35967 ft | 451 kts | 351° |
| 2026-05-06 14:37 | 43.39772 | 0.92822 | 35959 ft | 450 kts | 351° |
| 2026-05-06 14:38 | 43.46019 | 0.92122 | 35962 ft | 450 kts | 351° |
| 2026-05-06 14:38 | 43.52222 | 0.91425 | 35955 ft | 450 kts | 351° |
| 2026-05-06 14:39 | 43.58503 | 0.90718 | 35956 ft | 450 kts | 351° |
| 2026-05-06 14:39 | 43.64695 | 0.90020 | 35958 ft | 449 kts | 351° |
| 2026-05-06 14:40 | 43.70921 | 0.89316 | 35946 ft | 449 kts | 351° |
| 2026-05-06 14:40 | 43.77140 | 0.88612 | 35959 ft | 448 kts | 351° |
| 2026-05-06 14:41 | 43.83352 | 0.87906 | 35947 ft | 448 kts | 352° |
| 2026-05-06 14:41 | 43.89477 | 0.86682 | 35948 ft | 442 kts | 340° |
| 2026-05-06 14:42 | 43.95086 | 0.83423 | 35944 ft | 436 kts | 331° |
| 2026-05-06 14:42 | 44.00562 | 0.79785 | 35935 ft | 436 kts | 331° |
| 2026-05-06 14:43 | 44.06047 | 0.76178 | 35945 ft | 436 kts | 332° |
| 2026-05-06 14:43 | 44.11548 | 0.72603 | 35942 ft | 436 kts | 332° |
| 2026-05-06 14:44 | 44.17057 | 0.69030 | 35940 ft | 436 kts | 332° |
| 2026-05-06 14:45 | 44.25311 | 0.63661 | 35942 ft | 437 kts | 332° |
| 2026-05-06 14:45 | 44.30816 | 0.60070 | 35942 ft | 437 kts | 332° |
| 2026-05-06 14:46 | 44.36314 | 0.56476 | 35936 ft | 437 kts | 332° |
| 2026-05-06 14:46 | 44.41816 | 0.52872 | 35936 ft | 436 kts | 332° |
| 2026-05-06 14:47 | 44.47307 | 0.49258 | 35938 ft | 436 kts | 332° |
| 2026-05-06 14:47 | 44.52785 | 0.45625 | 35933 ft | 436 kts | 332° |
| 2026-05-06 14:48 | 44.58265 | 0.41981 | 35935 ft | 436 kts | 332° |
| 2026-05-06 14:48 | 44.63738 | 0.38336 | 35937 ft | 435 kts | 332° |
| 2026-05-06 14:49 | 44.69205 | 0.34689 | 35939 ft | 435 kts | 332° |
| 2026-05-06 14:49 | 44.74658 | 0.31043 | 35941 ft | 434 kts | 332° |
| 2026-05-06 14:50 | 44.80073 | 0.27415 | 35940 ft | 434 kts | 332° |
| 2026-05-06 14:50 | 44.85519 | 0.23758 | 35932 ft | 433 kts | 332° |
| 2026-05-06 14:51 | 44.90955 | 0.20101 | 35940 ft | 433 kts | 333° |
| 2026-05-06 14:51 | 44.96390 | 0.16436 | 35928 ft | 433 kts | 333° |
| 2026-05-06 14:52 | 45.01818 | 0.12769 | 35931 ft | 432 kts | 333° |
| 2026-05-06 14:52 | 45.07243 | 0.09096 | 35930 ft | 432 kts | 333° |
| 2026-05-06 14:53 | 45.12667 | 0.05417 | 35926 ft | 432 kts | 333° |
| 2026-05-06 14:53 | 45.18089 | 0.01731 | 35928 ft | 432 kts | 333° |
| 2026-05-06 14:54 | 45.23515 | -0.01966 | 35921 ft | 433 kts | 333° |
| 2026-05-06 14:54 | 45.28939 | -0.05670 | 35916 ft | 433 kts | 333° |
| 2026-05-06 14:55 | 45.34362 | -0.09381 | 35917 ft | 433 kts | 333° |
| 2026-05-06 14:55 | 45.39782 | -0.13098 | 35923 ft | 433 kts | 333° |
| 2026-05-06 14:56 | 45.45204 | -0.16824 | 35925 ft | 432 kts | 333° |
| 2026-05-06 14:56 | 45.50618 | -0.20554 | 35931 ft | 432 kts | 333° |
| 2026-05-06 14:57 | 45.56025 | -0.24287 | 35941 ft | 432 kts | 333° |
| 2026-05-06 14:57 | 45.61430 | -0.28025 | 35935 ft | 432 kts | 333° |
| 2026-05-06 14:58 | 45.66749 | -0.31972 | 35932 ft | 430 kts | 324° |